• Join FlightAware (Why Join?)
  • Login
  • US Flag 
04:34PM EDT


 

Airport Tracker/Info


-or-


 

Live Flight TrackerFlight Track Log ✈ CSJ405 ✈ 01-May-2013 ✈ CYMX - KALB

Flight Track Log - Related Links

Times and Time Zones

All times are in EDT time to prevent confusion due to time zone crossing. See the CSJ405 flight status page for this flight to view local times or setup timezone preferences in your user account.

Time Position Orientation Groundspeed Altitude Reporting Facility
EDT Latitude Longitude Course Direction KTS MPH feet Rate Location/Type
04:48AM 45.6667 -73.9833 35° Northeast 120 138 400  Level Montreal Center
04:49AM 45.7000 -73.9500 35° Northeast 120 138 1,900 1,320 Climbing Montreal Center
04:50AM 45.7000 -73.9000 90° East 110 127 3,100 1,200 Climbing Montreal Center
04:51AM 45.6667 -73.9000 180° South 110 127 4,400 1,200 Climbing Montreal Center
04:52AM 45.6500 -73.9000 180° South 110 127 5,600 1,140 Climbing Montreal Center
04:53AM 45.6167 -73.9000 180° South 110 127 6,700 1,140 Climbing Montreal Center
04:54AM 45.5833 -73.9167 199° South 120 138 7,900 1,080 Climbing Montreal Center
04:55AM 45.5500 -73.8833 145° Southeast 110 127 8,900 1,080 Climbing Montreal Center
04:56AM 45.5167 -73.8833 180° South 120 138 10,100 540 Climbing Montreal Center
04:57AM 45.4667 -73.9167 205° Southwest 160 184 10,000 -60 Descending Montreal Center
04:58AM 45.4333 -73.8833 145° Southeast 170 196 10,000  Level Montreal Center
04:59AM 45.3833 -73.9000 193° South 170 196 10,000  Level Montreal Center
05:00AM 45.3333 -73.9000 180° South 170 196 10,000  Level Montreal Center
05:01AM 45.2833 -73.9000 180° South 170 196 10,000  Level Montreal Center
05:02AM 45.2500 -73.9000 180° South 170 196 10,000  Level Montreal Center
05:03AM 45.2000 -73.8833 167° South 170 196 10,000  Level Montreal Center
05:04AM 45.1500 -73.8833 180° South 170 196 10,000  Level Montreal Center
05:05AM 45.1000 -73.8833 180° South 170 196 10,000  Level Montreal Center
05:06AM 45.0500 -73.8833 180° South 170 196 10,000  Level Montreal Center
05:07AM 45.0000 -73.8833 180° South 170 196 10,000  Level Montreal Center
05:08AM 44.9500 -73.8833 180° South 170 196 10,000  Level Montreal Center
05:09AM 44.9167 -73.8667 161° South 170 196 10,000  Level Montreal Center
05:10AM 44.8667 -73.8667 180° South 170 196 10,000  Level Montreal Center
05:10AM 44.8647 -73.8808 259° West 177 204 10,000  Level Boston Center
05:11AM 44.8167 -73.8667 168° South 170 196 10,000  Level Montreal Center
05:11AM 44.8192 -73.8769 289° West 177 204 10,000  Level Boston Center
05:12AM 44.7667 -73.8667 172° South 170 196 10,000  Level Montreal Center
05:12AM 44.7711 -73.8758 304° West 177 204 10,000  Level Boston Center
05:13AM 44.7167 -73.8667 173° South 170 196 10,000  Level Montreal Center
05:14AM 44.6833 -73.8667 180° South 170 196 10,000  Level Montreal Center
05:15AM 44.6333 -73.8500 167° South 170 196 10,000  Level Montreal Center
05:16AM 44.5833 -73.8500 180° South 170 196 10,000  Level Montreal Center
05:16AM 44.5878 -73.8714 286° West 177 204 10,000  Level Boston Center
05:17AM 44.5400 -73.8672 176° South 177 204 10,000  Level Boston Center
05:18AM 44.4919 -73.8689 181° South 177 204 10,000  Level Boston Center
05:19AM 44.4464 -73.8678 179° South 177 204 10,000  Level Boston Center
05:20AM 44.3964 -73.8636 177° South 177 204 10,000  Level Boston Center
05:21AM 44.3483 -73.8625 179° South 177 204 10,000  Level Boston Center
05:22AM 44.3006 -73.8614 179° South 177 204 10,000  Level Boston Center
05:23AM 44.2525 -73.8575 177° South 177 204 10,000  Level Boston Center
05:24AM 44.2047 -73.8564 179° South 177 204 10,000  Level Boston Center
05:25AM 44.1442 -73.8578 181° South 177 204 10,000  Level Boston Center
05:26AM 44.0964 -73.8536 176° South 177 204 10,000  Level Boston Center
05:27AM 44.0525 -73.8528 179° South 177 204 10,000  Level Boston Center
05:28AM 44.0047 -73.8514 179° South 177 204 10,000  Level Boston Center
05:29AM 43.9569 -73.8475 177° South 177 204 10,000  Level Boston Center
05:30AM 43.9025 -73.8492 181° South 177 204 10,000  Level Boston Center
05:31AM 43.8525 -73.8481 179° South 177 204 10,000  Level Boston Center
05:32AM 43.8047 -73.8467 179° South 177 204 10,000  Level Boston Center
05:33AM 43.7547 -73.8428 177° South 177 204 10,000  Level Boston Center
05:34AM 43.7047 -73.8417 179° South 177 204 10,000  Level Boston Center
05:35AM 43.6631 -73.8378 176° South 177 204 10,000  Level Boston Center
05:36AM 43.6131 -73.8367 179° South 177 204 10,000  Level Boston Center
05:37AM 43.5569 -73.8353 179° South 178 205 10,000  Level Boston Center
05:38AM 43.5131 -73.8286 174° South 177 204 10,000  Level Boston Center
05:39AM 43.4631 -73.8275 179° South 177 204 10,000  Level Boston Center
05:40AM 43.4131 -73.8264 179° South 177 204 10,000  Level Boston Center
05:41AM 43.3528 -73.8306 183° South 181 208 10,000 -300 Level Boston Center
05:42AM 43.3047 -73.8267 177° South 182 209 9,500 -720 Descending Boston Center
05:43AM 43.2528 -73.8228 177° South 192 221 8,700 -720 Descending Boston Center
05:44AM 43.1986 -73.8186 177° South 197 227 8,100 -480 Descending Boston Center
05:45AM 43.1486 -73.8175 179° South 191 220 7,800 900 Descending Boston Center
05:46AM 43.0986 -73.8106 174° South 184 212 10,000 -1,200 Climbing Boston Center
05:47AM 43.0489 -73.8011 172° South 184 212 5,400 -2,700 Descending Boston Center
05:48AM 42.9986 -73.8028 181° South 177 204 4,600 -900 Descending Boston Center
05:49AM 42.9508 -73.8017 179° South 177 204 3,700 -660 Descending Boston Center
05:50AM 42.9008 -73.7978 177° South 177 204 3,300 -480 Descending Boston Center
05:51AM 42.8531 -73.7911 174° South 177 204 2,800 -660 Descending Boston Center
05:51AM 42.8383 -73.7878 171° South 180 207 2,500 -840 Descending Boston Center
05:52AM 42.7906 -73.7783 172° South 177 204 1,800 -1,020 Descending Boston Center
05:53AM 42.7508 -73.7831 185° South 131 151 500 -1,320 Descending Boston Center
05:55AM 42.7491 -73.8020 180° South  Level Estimated
06:02AM 42.7491 -73.8020 180° South  Level Estimated
06:03AM 42.7491 -73.8020 180° South  Level Estimated
06:04AM 42.7491 -73.8020 180° South  Level Estimated